Time;durP1;ratioP1;P1;durP2;ratioP2;P2;SDS_P1;SDS_P2;PMS_P1;PMS_P2;Temp;Humidity;BMP_temperature;BMP_pressure;BME280_temperature;BME280_humidity;BME280_pressure;Samples;Min_cycle;Max_cycle;Signal;HPM_P1;HPM_P2
2023/11/18 00:00:52;;;;;;;4.00;3.70;;;;;;;10.03;61.97;98288.97;5049200;28;20242;-71
2023/11/18 00:03:18;;;;;;;6.00;4.30;;;;;;;9.99;62.16;98286.56;5045869;28;20291;-71
2023/11/18 00:05:43;;;;;;;5.00;4.13;;;;;;;10.02;62.23;98289.91;5043647;28;20187;-70
2023/11/18 00:08:08;;;;;;;4.57;4.13;;;;;;;10.03;62.35;98294.19;5047641;28;20229;-71
2023/11/18 00:10:34;;;;;;;5.20;3.27;;;;;;;10.05;62.48;98284.44;5031131;28;20274;-71
2023/11/18 00:13:01;;;;;;;3.80;3.50;;;;;;;10.06;62.42;98296.56;5049067;28;20195;-72
2023/11/18 00:15:27;;;;;;;4.00;3.67;;;;;;;10.09;62.63;98281.44;5049163;28;20716;-72
2023/11/18 00:17:52;;;;;;;3.80;3.50;;;;;;;10.12;62.51;98289.06;5046018;28;20455;-71
2023/11/18 00:20:18;;;;;;;8.03;4.47;;;;;;;10.13;62.54;98287.25;5035270;28;20288;-70
2023/11/18 00:22:44;;;;;;;9.80;3.63;;;;;;;10.16;62.53;98294.88;5041079;28;20531;-73
2023/11/18 00:25:10;;;;;;;4.20;3.80;;;;;;;10.09;63.13;98291.06;5047926;28;20470;-71
2023/11/18 00:27:36;;;;;;;6.00;3.60;;;;;;;10.05;62.99;98289.66;5048518;28;21012;-71
2023/11/18 00:30:05;;;;;;;4.20;3.80;;;;;;;10.08;62.91;98284.19;5032577;28;20426;-71
2023/11/18 00:32:31;;;;;;;8.20;4.50;;;;;;;9.98;63.52;98279.66;5048401;28;20187;-71
2023/11/18 00:34:57;;;;;;;5.73;4.40;;;;;;;9.98;63.76;98287.53;5048164;28;20516;-71
2023/11/18 00:37:22;;;;;;;5.03;4.27;;;;;;;10.04;63.60;98285.38;5041207;28;20426;-71
2023/11/18 00:39:48;;;;;;;4.70;4.30;;;;;;;10.01;63.53;98288.25;5048376;28;20191;-70
2023/11/18 00:42:13;;;;;;;5.00;4.23;;;;;;;9.91;63.21;98288.13;5044697;28;20665;-71
2023/11/18 00:44:38;;;;;;;4.43;4.03;;;;;;;9.94;63.56;98293.97;5046512;28;20274;-72
2023/11/18 00:47:04;;;;;;;3.90;3.60;;;;;;;10.03;63.11;98292.38;5039075;28;20277;-72
2023/11/18 00:49:30;;;;;;;4.63;4.13;;;;;;;9.98;62.41;98292.75;5045440;28;20223;-70
2023/11/18 00:51:55;;;;;;;5.50;4.10;;;;;;;10.04;62.19;98285.38;5039452;28;20256;-70
2023/11/18 00:54:20;;;;;;;5.00;3.93;;;;;;;10.01;61.94;98283.84;5048077;28;20687;-72
2023/11/18 00:56:46;;;;;;;4.50;4.10;;;;;;;9.97;62.33;98282.41;5044208;28;20279;-70
2023/11/18 00:59:11;;;;;;;4.07;3.67;;;;;;;10.00;62.14;98287.41;5047937;28;20210;-71
2023/11/18 01:01:37;;;;;;;4.37;4.00;;;;;;;9.99;62.07;98286.56;5048687;28;20627;-72
2023/11/18 01:04:02;;;;;;;4.37;3.97;;;;;;;9.98;61.84;98282.28;5041222;28;20278;-70
2023/11/18 01:06:28;;;;;;;4.27;3.87;;;;;;;10.02;61.79;98284.66;5048377;28;20566;-71
2023/11/18 01:08:53;;;;;;;4.37;3.97;;;;;;;10.03;61.91;98286.34;5047821;28;20218;-71
2023/11/18 01:11:19;;;;;;;4.77;3.33;;;;;;;10.03;61.92;98284.53;5039994;28;20605;-72
2023/11/18 01:13:48;;;;;;;4.87;4.03;;;;;;;10.05;61.71;98294.91;5048358;28;20198;-70
2023/11/18 01:16:14;;;;;;;6.67;3.67;;;;;;;10.01;61.90;98290.84;5047288;28;20679;-71
2023/11/18 01:18:40;;;;;;;3.90;3.50;;;;;;;10.04;62.03;98293.25;5046011;28;20449;-71
2023/11/18 01:21:08;;;;;;;3.80;3.50;;;;;;;10.04;62.29;98294.06;5041334;28;21064;-73
2023/11/18 01:23:38;;;;;;;4.67;4.20;;;;;;;10.05;62.49;98293.09;5037957;28;20299;-71
2023/11/18 01:26:05;;;;;;;4.13;3.70;;;;;;;10.07;62.32;98298.25;5046664;28;20429;-72
2023/11/18 01:28:38;;;;;;;3.50;3.20;;;;;;;10.09;62.40;98301.53;5045236;28;20457;-70
2023/11/18 01:31:04;;;;;;;3.50;3.30;;;;;;;10.08;62.29;98300.72;5046202;28;20651;-73
2023/11/18 01:33:32;;;;;;;3.80;3.50;;;;;;;10.07;62.27;98314.78;5047964;28;20513;-71
2023/11/18 01:35:58;;;;;;;3.47;3.17;;;;;;;10.10;62.45;98311.06;5046772;28;20707;-72
2023/11/18 01:38:23;;;;;;;4.43;4.03;;;;;;;10.08;62.28;98311.22;5039025;28;20491;-70
2023/11/18 01:40:48;;;;;;;5.37;3.50;;;;;;;10.10;62.17;98321.56;5043313;28;20630;-71
2023/11/18 01:43:14;;;;;;;4.00;3.30;;;;;;;10.09;61.79;98314.66;5043061;28;20199;-72
2023/11/18 01:45:42;;;;;;;4.40;4.00;;;;;;;10.12;61.59;98311.78;5040875;28;20191;-72
2023/11/18 01:48:11;;;;;;;3.87;3.50;;;;;;;10.09;61.59;98317.25;5041447;28;20202;-71
2023/11/18 01:50:37;;;;;;;5.33;2.83;;;;;;;10.07;61.47;98308.72;5047496;28;20464;-72
2023/11/18 01:53:04;;;;;;;3.33;3.03;;;;;;;10.01;61.50;98309.19;5038547;28;20491;-72
2023/11/18 01:55:29;;;;;;;3.33;3.03;;;;;;;9.93;61.05;98308.03;5029722;28;20525;-71
2023/11/18 01:57:56;;;;;;;3.50;3.10;;;;;;;9.97;61.97;98301.56;5047151;28;20565;-71
2023/11/18 02:00:23;;;;;;;3.13;2.83;;;;;;;10.03;62.21;98305.50;5038121;28;20282;-72
2023/11/18 02:02:49;;;;;;;3.07;2.87;;;;;;;10.06;61.99;98309.66;5044606;28;20426;-72
2023/11/18 02:05:16;;;;;;;4.20;3.13;;;;;;;10.10;62.10;98313.69;5046871;28;20858;-71
2023/11/18 02:07:41;;;;;;;3.70;3.40;;;;;;;10.09;62.09;98306.78;5046933;28;20465;-71
2023/11/18 02:10:08;;;;;;;3.00;2.80;;;;;;;10.08;61.60;98305.16;5037904;28;20434;-72
2023/11/18 02:13:05;;;;;;;3.07;2.77;;;;;;;10.05;62.12;98308.81;5047285;28;20195;-71
2023/11/18 02:15:33;;;;;;;3.00;2.80;;;;;;;9.98;61.56;98305.84;5047240;28;20436;-69
2023/11/18 02:18:02;;;;;;;3.33;3.03;;;;;;;9.96;61.87;98307.75;5042953;28;20452;-71
2023/11/18 02:20:28;;;;;;;3.80;2.90;;;;;;;9.98;61.61;98302.41;5047049;28;20465;-71
2023/11/18 02:22:54;;;;;;;3.40;2.90;;;;;;;9.96;61.88;98302.53;5046075;28;20533;-70
2023/11/18 02:25:24;;;;;;;3.30;3.07;;;;;;;9.93;61.44;98297.56;5046890;28;20854;-72
2023/11/18 02:27:49;;;;;;;3.70;3.40;;;;;;;9.86;62.02;98301.59;5042231;28;20457;-71
2023/11/18 02:30:16;;;;;;;6.23;3.47;;;;;;;9.91;62.00;98299.44;5039920;28;20421;-72
2023/11/18 02:32:49;;;;;;;3.07;2.77;;;;;;;9.98;61.80;98295.38;5045333;28;20203;-70
2023/11/18 02:35:20;;;;;;;5.93;3.47;;;;;;;9.97;61.85;98298.94;5040617;28;20433;-72
2023/11/18 02:37:47;;;;;;;3.03;2.83;;;;;;;10.02;61.94;98301.19;5009346;28;20473;-71
2023/11/18 02:40:18;;;;;;;3.40;3.10;;;;;;;10.04;62.31;98301.09;5044951;28;20466;-71
2023/11/18 02:42:44;;;;;;;3.00;2.80;;;;;;;10.07;62.30;98309.53;5046455;28;20826;-72
2023/11/18 02:45:12;;;;;;;4.93;2.90;;;;;;;10.08;62.12;98311.22;5043314;28;20433;-69
2023/11/18 02:47:38;;;;;;;5.83;3.13;;;;;;;10.10;61.82;98308.44;5047259;28;20507;-73
2023/11/18 02:50:10;;;;;;;3.60;3.20;;;;;;;10.12;61.62;98303.94;5032289;28;20832;-71
2023/11/18 02:52:37;;;;;;;3.30;3.00;;;;;;;10.09;61.46;98307.63;5050809;28;20429;-70
2023/11/18 02:55:06;;;;;;;3.17;2.90;;;;;;;9.99;61.98;98296.22;5044089;28;20524;-71
2023/11/18 02:57:32;;;;;;;3.27;2.97;;;;;;;9.91;61.41;98288.97;5045536;28;21199;-71
2023/11/18 03:00:00;;;;;;;3.37;3.07;;;;;;;9.91;61.46;98288.13;5050924;28;20465;-71
2023/11/18 03:02:27;;;;;;;4.27;3.00;;;;;;;9.89;61.80;98285.66;5043823;28;20424;-71
2023/11/18 03:04:53;;;;;;;3.27;3.00;;;;;;;9.91;61.55;98286.34;5050653;28;20429;-73
2023/11/18 03:07:18;;;;;;;2.73;2.53;;;;;;;9.85;61.32;98289.44;5046473;28;20433;-73
2023/11/18 03:09:46;;;;;;;3.50;3.00;;;;;;;9.80;61.43;98286.38;5049783;28;20215;-72
2023/11/18 03:12:12;;;;;;;3.03;2.73;;;;;;;9.75;61.55;98291.97;5043054;28;20194;-71
2023/11/18 03:14:38;;;;;;;2.73;2.53;;;;;;;9.71;61.67;98292.31;5045340;28;20943;-71
2023/11/18 03:17:06;;;;;;;2.83;2.63;;;;;;;9.73;61.28;98290.41;5046566;28;20191;-71
2023/11/18 03:19:34;;;;;;;3.70;3.30;;;;;;;9.67;61.33;98289.97;5044721;28;20207;-71
2023/11/18 03:22:03;;;;;;;4.40;2.70;;;;;;;9.67;61.18;98292.56;5049426;28;20539;-72
2023/11/18 03:24:28;;;;;;;3.90;2.80;;;;;;;9.63;61.16;98295.56;5042509;28;20911;-72
2023/11/18 03:26:57;;;;;;;8.03;2.90;;;;;;;9.56;61.32;98300.44;5048317;28;20495;-69
2023/11/18 03:29:23;;;;;;;3.57;3.03;;;;;;;9.52;61.48;98301.63;5041283;28;20733;-69
2023/11/18 03:31:49;;;;;;;3.03;2.83;;;;;;;9.51;61.58;98295.53;5049913;28;20488;-71
2023/11/18 03:34:16;;;;;;;3.33;3.03;;;;;;;9.45;61.63;98290.78;5030201;28;20191;-71
2023/11/18 03:36:41;;;;;;;3.07;2.87;;;;;;;9.46;61.10;98299.47;5047154;28;20512;-71
2023/11/18 03:39:07;;;;;;;3.37;3.07;;;;;;;9.25;61.66;98292.31;5040883;28;20664;-70
2023/11/18 03:41:32;;;;;;;3.00;2.70;;;;;;;9.24;62.15;98293.25;5049463;28;20257;-71
2023/11/18 03:43:58;;;;;;;4.23;3.23;;;;;;;9.18;61.86;98305.03;5049670;28;20282;-71
2023/11/18 03:46:23;;;;;;;3.50;3.07;;;;;;;9.20;62.47;98310.13;5043665;28;20720;-72
2023/11/18 03:48:48;;;;;;;6.47;3.00;;;;;;;9.26;62.62;98309.69;5031649;28;20295;-71
2023/11/18 03:51:16;;;;;;;3.53;2.37;;;;;;;9.25;61.92;98308.00;5047774;28;20230;-71
2023/11/18 03:53:42;;;;;;;4.10;3.00;;;;;;;9.19;61.70;98309.31;5040992;28;20199;-72
2023/11/18 03:56:09;;;;;;;5.03;3.03;;;;;;;9.15;62.03;98305.25;5048945;28;20652;-71
2023/11/18 03:58:34;;;;;;;3.97;3.17;;;;;;;9.10;62.39;98304.78;5047003;28;20688;-70
2023/11/18 04:01:01;;;;;;;3.33;3.03;;;;;;;9.10;62.59;98311.78;5047757;28;20465;-71
2023/11/18 04:03:27;;;;;;;3.40;3.10;;;;;;;9.17;62.41;98313.00;5047817;28;20187;-70
2023/11/18 04:05:52;;;;;;;4.83;3.10;;;;;;;9.16;62.13;98308.72;5048818;28;21114;-70
2023/11/18 04:08:18;;;;;;;4.50;3.70;;;;;;;9.13;62.30;98303.72;5045884;28;20589;-72
2023/11/18 04:10:43;;;;;;;4.73;3.50;;;;;;;9.14;61.86;98302.75;5042287;28;20198;-70
2023/11/18 04:13:08;;;;;;;5.70;3.33;;;;;;;9.14;62.02;98306.19;5040836;28;20301;-71
2023/11/18 04:15:35;;;;;;;3.67;3.33;;;;;;;9.16;61.95;98319.19;5047803;28;20561;-71
2023/11/18 04:18:00;;;;;;;3.47;3.17;;;;;;;9.16;62.15;98313.94;5040506;28;20592;-70
2023/11/18 04:20:26;;;;;;;3.93;3.47;;;;;;;9.18;61.51;98309.44;5030579;28;20462;-72
2023/11/18 04:22:51;;;;;;;3.13;2.83;;;;;;;9.14;61.81;98316.66;5039619;28;20207;-71
2023/11/18 04:25:17;;;;;;;3.33;3.03;;;;;;;9.12;61.76;98325.59;5037420;28;20194;-71
2023/11/18 04:27:42;;;;;;;3.57;3.27;;;;;;;9.09;61.65;98310.97;5048099;28;20690;-72
2023/11/18 04:30:12;;;;;;;3.80;3.40;;;;;;;9.03;61.49;98320.09;5048244;28;20329;-71
2023/11/18 04:32:38;;;;;;;4.30;3.90;;;;;;;8.98;61.28;98310.94;5048668;28;20201;-70
2023/11/18 04:35:08;;;;;;;4.00;3.60;;;;;;;8.98;61.60;98314.38;5038224;28;20445;-71
2023/11/18 04:37:34;;;;;;;3.50;3.20;;;;;;;8.82;61.97;98308.66;5043084;28;20203;-70
2023/11/18 04:40:00;;;;;;;3.80;3.00;;;;;;;8.88;62.09;98309.00;5048323;28;20476;-70
2023/11/18 04:42:26;;;;;;;6.10;3.17;;;;;;;8.87;62.15;98306.50;5035258;28;20457;-72
2023/11/18 04:44:51;;;;;;;3.20;2.93;;;;;;;8.86;61.59;98310.91;5046353;28;20432;-71
2023/11/18 04:47:20;;;;;;;3.83;3.20;;;;;;;8.85;61.67;98311.00;5046568;28;20269;-70
2023/11/18 04:49:45;;;;;;;3.63;3.33;;;;;;;8.86;61.58;98302.22;5045027;28;20202;-72
2023/11/18 04:52:11;;;;;;;3.50;3.20;;;;;;;8.87;61.71;98304.75;5040263;28;20841;-70
2023/11/18 04:54:36;;;;;;;3.83;3.13;;;;;;;8.84;61.95;98294.50;5045979;28;20621;-70
2023/11/18 04:57:02;;;;;;;4.33;3.93;;;;;;;8.90;61.53;98304.50;5047225;28;20186;-71
2023/11/18 04:59:27;;;;;;;4.23;3.80;;;;;;;8.96;61.41;98312.84;5018209;28;20210;-69
2023/11/18 05:01:53;;;;;;;12.93;5.50;;;;;;;8.97;61.53;98314.50;5044064;28;20457;-69
2023/11/18 05:04:19;;;;;;;40.10;14.77;;;;;;;8.99;62.03;98316.03;5039612;28;20323;-70
2023/11/18 05:06:44;;;;;;;41.83;15.57;;;;;;;8.94;61.61;98307.72;5044040;28;20253;-70
2023/11/18 05:09:10;;;;;;;33.43;13.33;;;;;;;8.95;62.20;98306.75;5046703;28;20484;-69
2023/11/18 05:11:35;;;;;;;20.80;8.37;;;;;;;8.95;61.69;98300.72;5047346;28;20267;-69
2023/11/18 05:14:02;;;;;;;11.80;6.07;;;;;;;8.95;61.57;98301.53;5027646;28;20198;-70
2023/11/18 05:16:28;;;;;;;11.47;5.67;;;;;;;8.97;61.75;98294.41;5036792;28;20205;-69
2023/11/18 05:18:53;;;;;;;10.80;6.40;;;;;;;8.92;62.00;98291.31;5047027;28;20449;-69
2023/11/18 05:21:19;;;;;;;11.80;7.10;;;;;;;8.94;61.70;98299.03;5045024;28;20241;-70
2023/11/18 05:23:44;;;;;;;16.23;9.00;;;;;;;8.91;61.76;98300.94;5021522;28;20239;-69
2023/11/18 05:26:10;;;;;;;15.10;8.17;;;;;;;8.91;61.58;98294.88;5041577;28;20215;-69
2023/11/18 05:28:35;;;;;;;15.60;8.43;;;;;;;8.93;61.50;98293.00;5041954;28;20281;-69
2023/11/18 05:31:04;;;;;;;12.60;8.47;;;;;;;8.83;61.42;98292.00;5043093;28;20182;-70
2023/11/18 05:33:31;;;;;;;10.57;7.93;;;;;;;8.80;61.84;98294.84;5046443;28;20194;-72
2023/11/18 05:35:57;;;;;;;12.73;7.47;;;;;;;8.86;61.98;98294.38;5028286;28;20544;-70
2023/11/18 05:38:23;;;;;;;12.90;9.03;;;;;;;8.83;61.56;98294.59;5045840;28;20540;-70
2023/11/18 05:41:00;;;;;;;20.53;10.57;;;;;;;8.82;62.01;98291.16;5041772;28;20215;-69
2023/11/18 05:43:30;;;;;;;19.50;11.10;;;;;;;8.85;62.32;98296.19;5024599;28;20498;-70
2023/11/18 05:46:14;;;;;;;13.00;8.27;;;;;;;8.90;62.14;98303.66;5044877;28;20918;-72
2023/11/18 05:48:46;;;;;;;7.70;6.80;;;;;;;8.76;62.24;98292.47;5035631;28;20484;-70
2023/11/18 05:51:12;;;;;;;9.97;7.13;;;;;;;8.81;62.31;98305.19;5046802;28;20424;-70
2023/11/18 05:53:43;;;;;;;15.73;9.00;;;;;;;8.84;62.16;98293.66;5046737;28;20437;-71
2023/11/18 05:56:09;;;;;;;10.87;7.97;;;;;;;8.83;62.30;98287.59;5036762;28;20186;-70
2023/11/18 05:58:34;;;;;;;10.90;7.77;;;;;;;8.91;61.44;98285.25;5043536;28;20450;-71
2023/11/18 06:01:00;;;;;;;9.63;8.00;;;;;;;8.88;61.87;98282.84;5046188;28;20297;-70
2023/11/18 06:03:25;;;;;;;13.40;8.90;;;;;;;8.82;61.25;98285.13;5042972;28;20274;-70
2023/11/18 06:05:51;;;;;;;19.30;11.80;;;;;;;8.79;61.02;98274.88;5044582;28;20191;-71
2023/11/18 06:08:17;;;;;;;19.90;12.30;;;;;;;8.76;61.45;98278.53;5043724;28;20231;-70
2023/11/18 06:10:44;;;;;;;16.33;12.60;;;;;;;8.77;61.55;98274.97;5047415;28;20432;-71
2023/11/18 06:13:12;;;;;;;17.03;11.37;;;;;;;8.78;61.46;98284.50;5047189;28;20175;-70
2023/11/18 06:15:38;;;;;;;16.17;11.00;;;;;;;8.82;61.60;98290.34;5038707;28;20429;-70
2023/11/18 06:18:05;;;;;;;12.60;9.63;;;;;;;8.80;61.64;98273.94;5041746;28;20455;-70
2023/11/18 06:20:30;;;;;;;13.03;9.97;;;;;;;8.79;61.42;98277.50;5046480;28;20249;-71
2023/11/18 06:22:57;;;;;;;10.20;8.87;;;;;;;8.77;61.45;98277.59;5041658;28;20532;-71
2023/11/18 06:25:25;;;;;;;12.07;8.10;;;;;;;8.77;61.05;98272.38;5042737;28;20191;-71
2023/11/18 06:27:52;;;;;;;13.73;8.77;;;;;;;8.80;61.32;98276.56;5050952;28;20442;-70
2023/11/18 06:30:19;;;;;;;13.40;8.33;;;;;;;8.73;61.17;98282.22;5050090;28;20433;-70
2023/11/18 06:32:46;;;;;;;6.80;6.10;;;;;;;8.71;61.13;98284.13;5029087;28;20445;-70
2023/11/18 06:35:14;;;;;;;5.40;4.90;;;;;;;8.69;61.68;98303.47;5050766;28;20506;-70
2023/11/18 06:37:40;;;;;;;7.47;5.60;;;;;;;8.71;61.68;98306.81;5033229;28;20438;-70
2023/11/18 06:40:16;;;;;;;9.50;5.47;;;;;;;8.69;61.93;98306.94;5045335;28;20485;-69
2023/11/18 06:42:42;;;;;;;4.63;4.23;;;;;;;8.71;61.39;98304.22;5037963;28;20202;-71
2023/11/18 06:45:09;;;;;;;5.57;4.77;;;;;;;8.80;61.40;98307.91;5049814;28;20927;-71
2023/11/18 06:47:36;;;;;;;6.37;5.60;;;;;;;8.81;61.56;98304.38;5035037;28;20433;-70
2023/11/18 06:50:01;;;;;;;6.80;6.10;;;;;;;8.83;61.03;98307.66;5049435;28;20461;-71
2023/11/18 06:52:28;;;;;;;9.70;8.20;;;;;;;8.76;60.93;98307.28;5032764;28;20908;-72
2023/11/18 06:54:54;;;;;;;7.93;7.07;;;;;;;8.74;61.06;98304.81;5050671;28;20649;-71
2023/11/18 06:57:21;;;;;;;10.77;7.70;;;;;;;8.71;60.92;98299.78;5047955;28;20424;-72
2023/11/18 06:59:47;;;;;;;8.20;7.40;;;;;;;8.65;61.11;98295.03;5044507;28;20454;-71
2023/11/18 07:02:15;;;;;;;8.00;6.23;;;;;;;8.76;60.98;98297.69;5033676;28;20430;-71
2023/11/18 07:04:40;;;;;;;10.50;5.50;;;;;;;8.75;61.39;98295.19;5032320;28;20849;-71
2023/11/18 07:07:08;;;;;;;6.77;6.00;;;;;;;8.87;61.12;98288.22;5036316;28;20434;-73
2023/11/18 07:09:35;;;;;;;11.20;6.57;;;;;;;8.76;60.96;98289.84;5036488;28;20216;-73
2023/11/18 07:12:03;;;;;;;7.60;6.80;;;;;;;8.80;61.32;98287.00;5035691;28;21043;-73
2023/11/18 07:14:29;;;;;;;22.27;14.73;;;;;;;8.86;61.08;98291.75;5038637;28;20876;-73
2023/11/18 07:16:54;;;;;;;37.90;23.60;;;;;;;8.86;61.39;98292.63;5036808;28;20445;-71
2023/11/18 07:19:19;;;;;;;25.43;17.47;;;;;;;8.95;61.01;98291.06;5039577;28;21484;-71
2023/11/18 07:21:46;;;;;;;13.90;10.40;;;;;;;8.86;61.65;98302.22;5036383;28;20311;-70
2023/11/18 07:24:12;;;;;;;11.03;8.23;;;;;;;8.99;61.83;98316.03;5002964;28;20223;-72
2023/11/18 07:26:37;;;;;;;13.53;9.00;;;;;;;9.17;61.37;98311.22;5037341;28;20463;-69
2023/11/18 07:29:03;;;;;;;18.63;12.10;;;;;;;9.23;61.66;98320.38;5047970;28;20256;-72
2023/11/18 07:31:28;;;;;;;19.90;11.63;;;;;;;9.28;61.29;98317.41;5051438;28;20194;-70
2023/11/18 07:33:54;;;;;;;29.80;17.40;;;;;;;9.38;60.88;98313.97;5034720;28;20543;-71
2023/11/18 07:36:20;;;;;;;36.20;20.53;;;;;;;9.47;60.49;98316.81;5034618;28;20258;-72
2023/11/18 07:38:50;;;;;;;33.93;19.27;;;;;;;9.57;60.87;98320.44;5039635;28;20638;-72
2023/11/18 07:41:23;;;;;;;24.27;15.93;;;;;;;9.63;60.99;98314.69;5050470;28;20217;-70
2023/11/18 07:43:50;;;;;;;24.63;18.13;;;;;;;9.74;60.62;98313.88;5050808;28;20885;-71
2023/11/18 07:46:16;;;;;;;30.93;21.57;;;;;;;9.90;60.63;98295.16;5049486;28;20520;-71
2023/11/18 07:48:41;;;;;;;16.23;11.97;;;;;;;10.04;60.04;98306.34;5045206;28;20529;-71
2023/11/18 07:51:08;;;;;;;16.33;11.37;;;;;;;10.15;59.94;98303.69;5046055;28;20197;-69
2023/11/18 07:53:33;;;;;;;11.30;7.37;;;;;;;10.30;59.23;98299.84;5049947;28;20191;-70
2023/11/18 07:56:02;;;;;;;7.93;6.50;;;;;;;10.36;58.69;98290.66;5046574;28;20434;-70
2023/11/18 07:58:27;;;;;;;8.90;6.40;;;;;;;10.39;58.48;98290.44;5047264;28;20222;-69
2023/11/18 08:00:53;;;;;;;8.53;4.97;;;;;;;10.34;57.96;98286.47;5048194;28;20465;-71
2023/11/18 08:03:20;;;;;;;4.50;4.10;;;;;;;10.35;58.73;98293.38;5031647;28;20195;-71
2023/11/18 08:05:48;;;;;;;6.30;4.93;;;;;;;10.41;58.00;98291.13;5048230;28;20264;-70
2023/11/18 08:08:16;;;;;;;5.77;5.17;;;;;;;10.44;58.08;98300.56;5034384;28;20822;-70
2023/11/18 08:10:43;;;;;;;9.07;4.67;;;;;;;10.49;58.09;98303.63;5044914;28;20516;-69
2023/11/18 08:13:10;;;;;;;5.77;4.20;;;;;;;10.48;58.41;98295.88;5049527;28;20457;-72
2023/11/18 08:15:39;;;;;;;4.30;3.90;;;;;;;10.47;58.58;98289.78;5047586;28;20457;-69
2023/11/18 08:18:06;;;;;;;5.00;4.43;;;;;;;10.53;58.69;98293.69;5048954;28;20561;-71
2023/11/18 08:20:31;;;;;;;8.27;4.57;;;;;;;10.57;58.57;98300.38;5048439;28;20477;-71
2023/11/18 08:22:57;;;;;;;5.00;4.43;;;;;;;10.55;58.52;98308.38;5044270;28;20437;-70
2023/11/18 08:25:22;;;;;;;5.67;4.07;;;;;;;10.53;58.39;98306.81;5048495;28;20214;-70
2023/11/18 08:27:48;;;;;;;4.60;3.50;;;;;;;10.58;58.32;98307.28;5040476;28;20298;-70
2023/11/18 08:30:14;;;;;;;4.63;3.80;;;;;;;10.55;58.67;98302.28;5026209;28;20180;-70
2023/11/18 08:32:43;;;;;;;3.87;3.47;;;;;;;10.52;58.29;98297.31;5047798;28;20194;-70
2023/11/18 08:35:09;;;;;;;3.97;3.47;;;;;;;10.55;58.04;98310.16;5049357;28;20805;-71
2023/11/18 08:37:37;;;;;;;3.40;3.10;;;;;;;10.58;57.81;98302.88;5048134;28;20441;-70
2023/11/18 08:40:06;;;;;;;4.70;3.47;;;;;;;10.54;57.51;98311.94;5048826;28;20433;-70
2023/11/18 08:42:33;;;;;;;3.30;3.00;;;;;;;10.56;57.60;98307.41;5047626;28;20437;-71
2023/11/18 08:45:00;;;;;;;4.32;3.40;;;;;;;10.44;57.34;98303.19;5045827;28;20933;-70
2023/11/18 08:47:27;;;;;;;3.97;3.20;;;;;;;10.40;58.09;98299.13;5028256;28;20183;-70
2023/11/18 08:49:52;;;;;;;11.80;3.13;;;;;;;10.42;58.09;98303.28;5047098;28;20487;-71
2023/11/18 08:52:17;;;;;;;4.03;3.07;;;;;;;10.50;58.56;98305.28;5048159;28;20421;-70
2023/11/18 08:57:34;;;;;;;5.23;3.20;;;;;;;10.58;57.84;98297.66;5044938;28;20214;-70
2023/11/18 08:59:59;;;;;;;3.40;3.10;;;;;;;10.63;57.39;98296.41;5048808;28;20954;-70
2023/11/18 09:02:25;;;;;;;3.33;2.97;;;;;;;10.71;57.85;98292.22;5047948;28;20451;-70
2023/11/18 09:04:52;;;;;;;2.83;2.53;;;;;;;10.86;57.29;98281.41;5045104;28;20278;-69
2023/11/18 09:07:19;;;;;;;9.57;3.20;;;;;;;10.98;57.73;98279.53;5047299;28;20191;-72
2023/11/18 09:09:44;;;;;;;4.43;2.80;;;;;;;11.15;57.09;98278.97;5047135;28;20460;-70
2023/11/18 09:12:12;;;;;;;3.60;2.63;;;;;;;11.29;57.03;98279.59;5046544;28;20508;-71
2023/11/18 09:14:37;;;;;;;3.67;2.70;;;;;;;11.39;56.08;98288.34;5047130;28;20524;-74
2023/11/18 09:17:06;;;;;;;2.00;1.90;;;;;;;11.51;55.62;98292.53;5046617;28;20473;-73
2023/11/18 09:19:32;;;;;;;2.37;2.10;;;;;;;11.53;54.63;98288.00;5046847;28;20207;-72
2023/11/18 09:21:57;;;;;;;8.23;2.50;;;;;;;11.51;55.39;98287.28;5039765;28;20477;-71
2023/11/18 09:24:24;;;;;;;2.20;2.00;;;;;;;11.40;55.04;98283.94;5041489;28;20567;-74
2023/11/18 09:26:50;;;;;;;6.50;2.50;;;;;;;11.47;55.04;98288.50;5047299;28;20191;-69
2023/11/18 09:29:17;;;;;;;2.77;2.07;;;;;;;11.51;54.81;98292.53;5048080;28;20449;-68
2023/11/18 09:31:48;;;;;;;3.77;2.50;;;;;;;11.50;54.77;98287.44;5047626;28;20278;-70
2023/11/18 09:34:16;;;;;;;2.40;2.20;;;;;;;11.52;55.29;98285.50;5048524;28;20432;-71
2023/11/18 09:36:45;;;;;;;2.03;1.83;;;;;;;11.57;55.13;98287.72;5020401;28;20429;-69
2023/11/18 09:39:28;;;;;;;3.40;2.43;;;;;;;11.43;54.26;98287.13;5048165;28;20449;-70
2023/11/18 09:41:56;;;;;;;5.13;2.20;;;;;;;11.47;55.12;98292.94;5039289;28;20461;-70
2023/11/18 09:44:26;;;;;;;2.60;2.00;;;;;;;11.47;55.54;98288.50;5045607;28;20818;-70
2023/11/18 09:47:03;;;;;;;2.03;1.60;;;;;;;11.44;55.46;98293.19;5046815;28;20886;-69
2023/11/18 09:49:38;;;;;;;3.53;1.90;;;;;;;11.49;55.47;98289.19;5046249;28;20975;-70
2023/11/18 09:52:05;;;;;;;3.50;1.80;;;;;;;11.57;55.79;98293.78;5038590;28;20959;-70
2023/11/18 09:54:41;;;;;;;2.50;2.30;;;;;;;11.62;55.40;98285.53;5044898;28;20478;-70
2023/11/18 09:57:31;;;;;;;3.10;2.20;;;;;;;11.63;55.93;98281.94;5042206;28;20433;-69
2023/11/18 10:00:26;;;;;;;4.27;2.03;;;;;;;11.70;55.50;98272.56;5043682;28;20498;-69
2023/11/18 10:02:52;;;;;;;3.50;1.80;;;;;;;11.67;54.73;98267.59;5044301;28;20428;-69
2023/11/18 10:05:20;;;;;;;4.23;1.73;;;;;;;11.70;54.60;98274.34;5045025;28;20198;-72
2023/11/18 10:07:50;;;;;;;10.50;2.23;;;;;;;11.77;54.80;98280.75;5043951;28;20463;-70
2023/11/18 10:10:20;;;;;;;3.40;1.73;;;;;;;11.81;54.34;98285.59;5045050;28;20426;-72
2023/11/18 10:12:57;;;;;;;2.03;1.73;;;;;;;11.97;54.16;98273.75;5043772;28;21178;-70
2023/11/18 10:15:23;;;;;;;2.13;1.50;;;;;;;12.13;54.53;98268.00;5040127;28;20436;-69
2023/11/18 10:18:09;;;;;;;4.03;1.83;;;;;;;12.21;54.37;98278.66;5039317;28;21017;-71
2023/11/18 10:20:47;;;;;;;4.50;1.70;;;;;;;12.12;53.02;98274.22;5031336;28;20449;-70
2023/11/18 10:23:19;;;;;;;3.93;1.70;;;;;;;12.12;53.06;98277.66;5027119;28;20505;-68
2023/11/18 10:25:48;;;;;;;3.00;1.60;;;;;;;12.10;53.36;98274.34;5045467;28;20430;-72
2023/11/18 10:28:34;;;;;;;2.07;1.60;;;;;;;12.06;52.99;98267.72;5032914;28;20573;-71
2023/11/18 10:31:03;;;;;;;2.80;2.10;;;;;;;12.03;52.68;98265.34;5037956;28;20428;-72
2023/11/18 10:33:35;;;;;;;3.43;1.47;;;;;;;12.03;52.77;98267.16;5043374;28;20426;-72
2023/11/18 10:36:04;;;;;;;3.80;2.00;;;;;;;12.11;52.78;98269.94;5021710;28;20952;-71
2023/11/18 10:38:31;;;;;;;2.87;2.03;;;;;;;12.10;52.99;98273.53;5043347;28;20441;-71
2023/11/18 10:40:58;;;;;;;2.87;1.63;;;;;;;12.02;52.29;98283.88;5029282;28;20468;-70
2023/11/18 10:43:30;;;;;;;2.23;1.60;;;;;;;12.06;53.05;98280.84;5044064;28;20429;-70
2023/11/18 10:46:11;;;;;;;2.33;1.70;;;;;;;12.11;52.50;98276.00;5023950;28;20445;-70
2023/11/18 10:48:41;;;;;;;1.60;1.50;;;;;;;12.10;52.95;98279.59;5040670;28;20449;-70
2023/11/18 10:51:16;;;;;;;6.30;2.00;;;;;;;12.14;53.40;98269.66;5044505;28;20416;-71
2023/11/18 10:54:03;;;;;;;3.40;1.77;;;;;;;12.13;52.40;98273.25;5037855;28;20421;-71
2023/11/18 10:56:29;;;;;;;3.17;1.60;;;;;;;12.26;53.37;98265.09;5042527;28;20471;-71
2023/11/18 10:59:05;;;;;;;4.50;2.00;;;;;;;12.17;52.91;98264.13;5043342;28;20495;-71
2023/11/18 11:01:42;;;;;;;3.23;2.17;;;;;;;12.21;52.62;98256.81;5044454;28;20224;-71
2023/11/18 11:04:11;;;;;;;3.63;1.83;;;;;;;12.23;52.93;98258.31;5045449;28;20812;-71
2023/11/18 11:06:42;;;;;;;4.70;1.60;;;;;;;12.24;52.82;98246.84;5036695;28;21265;-71
2023/11/18 11:09:16;;;;;;;3.87;2.80;;;;;;;12.34;52.67;98244.22;5047377;28;20510;-71
2023/11/18 11:11:56;;;;;;;4.40;2.30;;;;;;;12.47;52.78;98253.66;5047692;28;20419;-71
2023/11/18 11:14:35;;;;;;;1.60;1.23;;;;;;;12.34;51.23;98254.75;5030982;28;20426;-72
2023/11/18 11:17:15;;;;;;;2.80;1.33;;;;;;;12.39;51.50;98249.88;5037705;28;20453;-71
2023/11/18 11:20:17;;;;;;;2.13;1.90;;;;;;;12.44;51.74;98254.72;5030516;28;20828;-71
2023/11/18 11:22:58;;;;;;;1.80;1.43;;;;;;;12.44;51.71;98247.69;5049674;28;20430;-72
2023/11/18 11:25:34;;;;;;;4.90;4.00;;;;;;;12.54;52.14;98260.00;5031603;28;20425;-70
2023/11/18 11:28:10;;;;;;;3.10;2.30;;;;;;;12.61;51.82;98253.19;5049572;28;20502;-70
2023/11/18 11:30:46;;;;;;;2.80;1.80;;;;;;;12.65;51.39;98244.06;5046770;28;20453;-71
2023/11/18 11:33:42;;;;;;;4.17;1.83;;;;;;;12.58;51.35;98246.41;5035101;28;20433;-72
2023/11/18 11:36:12;;;;;;;3.37;1.50;;;;;;;12.61;50.74;98247.94;5043013;28;20437;-71
2023/11/18 11:38:38;;;;;;;2.03;1.50;;;;;;;12.56;50.41;98239.66;5044628;28;20468;-70
2023/11/18 11:41:08;;;;;;;10.47;1.53;;;;;;;12.42;49.93;98230.38;5046976;28;20498;-72